createdAt,value
2022-12-18T00:00:01.747Z,60.06
2022-12-18T00:02:29.764Z,59.99
2022-12-18T00:04:58.270Z,60.04
2022-12-18T00:07:26.068Z,60.26
2022-12-18T00:09:53.967Z,60.22
2022-12-18T00:12:21.820Z,59.90
2022-12-18T00:14:49.617Z,59.68
2022-12-18T00:17:17.469Z,59.98
2022-12-18T00:19:45.328Z,60.02
2022-12-18T00:22:13.318Z,59.61
2022-12-18T00:24:41.300Z,59.25
2022-12-18T00:27:09.473Z,56.72
2022-12-18T00:29:37.301Z,59.03
2022-12-18T00:32:05.310Z,62.94
2022-12-18T00:34:33.133Z,63.65
2022-12-18T00:37:00.915Z,61.73
2022-12-18T00:39:28.763Z,60.14
2022-12-18T00:42:15.266Z,58.55
2022-12-18T00:44:43.081Z,58.98
2022-12-18T00:47:10.837Z,61.08
2022-12-18T00:49:38.586Z,60.59
2022-12-18T00:52:06.521Z,64.57
2022-12-18T00:54:34.328Z,66.23
2022-12-18T00:57:02.198Z,65.68
2022-12-18T00:59:31.448Z,63.51
2022-12-18T01:01:59.398Z,62.09
2022-12-18T01:04:27.319Z,61.31
2022-12-18T01:06:55.353Z,60.35
2022-12-18T01:09:23.187Z,60.06
2022-12-18T01:11:52.955Z,60.04
2022-12-18T01:14:20.812Z,58.64
2022-12-18T01:16:48.700Z,58.29
2022-12-18T01:19:17.136Z,60.24
2022-12-18T01:21:44.959Z,62.47
2022-12-18T01:24:12.993Z,65.86
2022-12-18T01:26:40.837Z,65.19
2022-12-18T01:29:08.805Z,64.30
2022-12-18T01:31:36.834Z,61.26
2022-12-18T01:34:05.545Z,61.00
2022-12-18T01:36:35.843Z,60.12
2022-12-18T01:39:14.091Z,59.89
2022-12-18T01:42:02.132Z,59.74
2022-12-18T01:45:05.236Z,59.10
2022-12-18T01:47:57.559Z,57.68
2022-12-18T01:50:32.796Z,62.38
2022-12-18T01:53:12.190Z,64.56
2022-12-18T01:55:46.144Z,64.29
2022-12-18T01:58:14.107Z,63.17
2022-12-18T02:00:42.875Z,62.58
2022-12-18T02:03:10.917Z,60.17
2022-12-18T02:06:18.539Z,57.85
2022-12-18T02:09:29.945Z,59.30
2022-12-18T02:12:11.677Z,62.19
2022-12-18T02:14:46.919Z,64.51
2022-12-18T02:17:21.575Z,62.58
2022-12-18T02:20:09.456Z,60.89
2022-12-18T02:23:05.048Z,60.21
2022-12-18T02:26:03.941Z,59.44
2022-12-18T02:28:36.243Z,57.57
2022-12-18T02:31:07.928Z,57.15
2022-12-18T02:33:36.195Z,58.44
2022-12-18T02:36:04.823Z,62.53
2022-12-18T02:38:33.506Z,67.02
2022-12-18T02:41:06.596Z,65.96
2022-12-18T02:43:34.460Z,62.82
2022-12-18T02:46:27.467Z,61.50
2022-12-18T02:49:15.590Z,61.13
2022-12-18T02:52:25.000Z,60.73
2022-12-18T02:55:49.266Z,60.47
2022-12-18T02:58:56.267Z,59.90
2022-12-18T03:01:38.094Z,59.95
2022-12-18T03:04:10.981Z,59.00
2022-12-18T03:07:51.348Z,58.41
2022-12-18T03:10:26.643Z,57.04
2022-12-18T03:13:09.997Z,63.96
2022-12-18T03:15:43.574Z,66.45
2022-12-18T03:18:15.737Z,65.38
2022-12-18T03:20:45.075Z,63.36
2022-12-18T03:23:18.843Z,62.32
2022-12-18T03:25:48.804Z,62.56
2022-12-18T03:28:21.395Z,61.47
2022-12-18T03:30:54.992Z,60.18
2022-12-18T03:33:28.530Z,59.22
2022-12-18T03:35:56.802Z,57.13
2022-12-18T03:38:24.876Z,57.09
2022-12-18T03:41:04.417Z,58.78
2022-12-18T03:43:55.024Z,64.66
2022-12-18T03:46:37.113Z,66.54
2022-12-18T03:49:25.085Z,65.98
2022-12-18T03:52:14.213Z,64.70
2022-12-18T03:54:42.415Z,63.09
2022-12-18T03:57:22.950Z,62.07
2022-12-18T03:59:57.514Z,61.46
2022-12-18T04:02:29.952Z,60.11
2022-12-18T04:05:01.799Z,59.99
2022-12-18T04:07:29.774Z,60.50
2022-12-18T04:09:59.785Z,60.40
2022-12-18T04:12:29.165Z,60.11
2022-12-18T04:14:57.365Z,59.98
2022-12-18T04:17:25.161Z,60.19
2022-12-18T04:19:53.831Z,57.82
2022-12-18T04:22:21.674Z,55.21
2022-12-18T04:24:52.435Z,57.30
2022-12-18T04:27:27.961Z,56.55
2022-12-18T04:29:56.292Z,60.23
2022-12-18T04:32:24.194Z,65.48
2022-12-18T04:34:52.901Z,67.93
2022-12-18T04:37:21.066Z,65.44
2022-12-18T04:39:50.658Z,62.82
2022-12-18T04:42:24.886Z,61.62
2022-12-18T04:44:52.668Z,61.02
2022-12-18T04:47:20.448Z,60.34
2022-12-18T04:49:48.264Z,59.74
2022-12-18T04:52:16.232Z,59.30
2022-12-18T04:54:44.192Z,58.73
2022-12-18T04:57:11.996Z,59.94
2022-12-18T04:59:39.832Z,61.91
2022-12-18T05:02:07.945Z,65.37
2022-12-18T05:04:35.828Z,65.54
2022-12-18T05:07:03.655Z,64.37
2022-12-18T05:09:31.432Z,62.69
2022-12-18T05:11:59.257Z,61.60
2022-12-18T05:14:28.676Z,60.79
2022-12-18T05:17:00.661Z,60.86
2022-12-18T05:19:28.861Z,60.61
2022-12-18T05:21:56.760Z,60.08
2022-12-18T05:24:24.626Z,60.02
2022-12-18T05:26:52.490Z,59.87
2022-12-18T05:29:20.320Z,59.95
2022-12-18T05:31:48.449Z,59.93
2022-12-18T05:34:16.518Z,60.71
2022-12-18T05:36:44.465Z,59.65
2022-12-18T05:39:12.506Z,56.31
2022-12-18T05:41:40.299Z,58.16
2022-12-18T05:44:09.498Z,60.65
2022-12-18T05:46:37.592Z,65.32
2022-12-18T05:49:05.471Z,66.02
2022-12-18T05:51:33.337Z,61.23
2022-12-18T05:54:01.118Z,57.89
2022-12-18T05:56:28.924Z,55.47
2022-12-18T05:58:57.097Z,59.38
2022-12-18T06:01:27.489Z,62.32
2022-12-18T06:03:56.238Z,65.60
2022-12-18T06:06:26.499Z,66.12
2022-12-18T06:08:54.701Z,61.99
2022-12-18T06:11:25.120Z,56.75
2022-12-18T06:13:58.776Z,56.56
2022-12-18T06:16:28.534Z,61.26
2022-12-18T06:19:04.081Z,65.29
2022-12-18T06:21:38.907Z,59.75
2022-12-18T06:24:07.496Z,55.18
2022-12-18T06:26:35.281Z,54.87
2022-12-18T06:29:03.070Z,55.05
2022-12-18T06:31:31.038Z,58.34
2022-12-18T06:33:59.163Z,65.07
2022-12-18T06:36:27.028Z,66.55
2022-12-18T06:38:54.888Z,62.42
2022-12-18T06:41:22.762Z,60.02
2022-12-18T06:43:50.844Z,59.14
2022-12-18T06:46:19.283Z,55.59
2022-12-18T06:48:51.037Z,59.48
2022-12-18T06:51:20.977Z,61.27
2022-12-18T06:53:48.810Z,63.31
2022-12-18T06:56:16.624Z,63.47
2022-12-18T06:58:44.844Z,61.54
2022-12-18T07:01:12.847Z,60.92
2022-12-18T07:03:41.753Z,59.77
2022-12-18T07:06:18.843Z,59.27
2022-12-18T07:08:47.608Z,58.55
2022-12-18T07:11:15.789Z,59.51
2022-12-18T07:13:43.934Z,63.95
2022-12-18T07:16:19.645Z,65.20
2022-12-18T07:18:51.065Z,63.48
2022-12-18T07:21:21.866Z,61.62
2022-12-18T07:23:49.755Z,60.63
2022-12-18T07:26:19.989Z,58.28
2022-12-18T07:28:48.253Z,55.38
2022-12-18T07:31:19.096Z,58.95
2022-12-18T07:33:47.150Z,61.03
2022-12-18T07:36:15.242Z,60.07
2022-12-18T07:38:43.034Z,59.66
2022-12-18T07:41:13.415Z,65.68
2022-12-18T07:43:42.612Z,67.45
2022-12-18T07:46:11.328Z,66.57
2022-12-18T07:48:42.514Z,64.91
2022-12-18T07:51:13.951Z,61.87
2022-12-18T07:53:42.687Z,60.77
2022-12-18T07:56:29.622Z,60.06
2022-12-18T07:59:00.408Z,58.20
2022-12-18T08:01:28.607Z,56.12
2022-12-18T08:03:56.659Z,60.07
2022-12-18T08:06:25.019Z,59.94
2022-12-18T08:08:54.557Z,61.75
2022-12-18T08:11:23.430Z,65.46
2022-12-18T08:13:51.400Z,66.15
2022-12-18T08:16:19.608Z,62.94
2022-12-18T08:18:48.689Z,61.20
2022-12-18T08:21:25.761Z,59.37
2022-12-18T08:23:54.891Z,57.46
2022-12-18T08:26:23.322Z,59.14
2022-12-18T08:28:51.709Z,58.77
2022-12-18T08:31:20.014Z,58.44
2022-12-18T08:33:51.058Z,61.06
2022-12-18T08:36:20.226Z,66.07
2022-12-18T08:38:48.383Z,66.08
2022-12-18T08:41:17.890Z,63.90
2022-12-18T08:44:04.693Z,61.02
2022-12-18T08:46:41.353Z,61.15
2022-12-18T08:49:11.006Z,57.27
2022-12-18T08:51:39.860Z,55.42
2022-12-18T08:54:08.653Z,59.88
2022-12-18T08:56:36.513Z,58.50
2022-12-18T08:59:05.532Z,58.99
2022-12-18T09:01:33.564Z,65.48
2022-12-18T09:04:02.163Z,65.65
2022-12-18T09:06:30.129Z,62.32
2022-12-18T09:08:58.303Z,59.23
2022-12-18T09:11:27.972Z,56.17
2022-12-18T09:13:56.805Z,54.39
2022-12-18T09:16:31.523Z,56.21
2022-12-18T09:19:00.971Z,62.93
2022-12-18T09:21:32.884Z,64.82
2022-12-18T09:24:04.542Z,62.67
2022-12-18T09:26:34.963Z,58.74
2022-12-18T09:29:03.958Z,59.02
2022-12-18T09:31:31.766Z,60.50
2022-12-18T09:33:59.686Z,63.01
2022-12-18T09:36:27.463Z,64.28
2022-12-18T09:38:55.931Z,62.91
2022-12-18T09:41:51.758Z,60.78
2022-12-18T09:44:38.882Z,59.72
2022-12-18T09:47:32.134Z,57.38
2022-12-18T09:50:26.104Z,57.98
2022-12-18T09:52:56.323Z,63.33
2022-12-18T09:55:37.515Z,63.52
2022-12-18T09:58:26.796Z,61.67
2022-12-18T10:00:55.505Z,57.01
2022-12-18T10:03:23.523Z,55.42
2022-12-18T10:06:08.397Z,57.48
2022-12-18T10:09:04.484Z,58.95
2022-12-18T10:11:50.303Z,58.22
2022-12-18T10:14:31.908Z,62.67
2022-12-18T10:17:35.315Z,66.95
2022-12-18T10:20:36.945Z,65.04
2022-12-18T10:23:15.047Z,61.14
2022-12-18T10:26:05.958Z,59.75
2022-12-18T10:28:37.166Z,57.74
2022-12-18T10:31:18.146Z,57.37
2022-12-18T10:33:46.245Z,61.08
2022-12-18T10:36:14.335Z,63.94
2022-12-18T10:38:42.888Z,64.04
2022-12-18T10:41:22.125Z,62.40
2022-12-18T10:44:10.793Z,60.45
2022-12-18T10:46:38.614Z,57.24
2022-12-18T10:49:06.408Z,56.91
2022-12-18T10:51:36.010Z,56.40
2022-12-18T10:54:15.496Z,60.99
2022-12-18T10:56:43.694Z,64.16
2022-12-18T10:59:17.328Z,64.23
2022-12-18T11:01:56.676Z,63.04
2022-12-18T11:04:30.564Z,60.74
2022-12-18T11:07:06.426Z,58.91
2022-12-18T11:09:36.541Z,58.66
2022-12-18T11:12:17.135Z,59.89
2022-12-18T11:14:49.580Z,63.02
2022-12-18T11:17:25.245Z,65.25
2022-12-18T11:19:58.512Z,64.48
2022-12-18T11:22:34.826Z,62.41
2022-12-18T11:25:35.432Z,61.18
2022-12-18T11:28:38.957Z,58.04
2022-12-18T11:31:24.351Z,57.43
2022-12-18T11:36:49.524Z,62.06
2022-12-18T11:39:46.762Z,65.19
2022-12-18T11:42:25.744Z,64.14
2022-12-18T11:45:03.999Z,62.24
2022-12-18T11:48:00.443Z,60.01
2022-12-18T11:50:58.626Z,55.30
2022-12-18T11:53:27.485Z,56.88
2022-12-18T11:56:32.051Z,60.31
2022-12-18T11:59:31.479Z,63.55
2022-12-18T12:02:34.253Z,64.11
2022-12-18T12:05:05.286Z,62.86
2022-12-18T12:08:12.343Z,61.00
2022-12-18T12:10:47.509Z,59.71
2022-12-18T12:13:55.933Z,57.10
2022-12-18T12:16:38.734Z,56.30
2022-12-18T12:19:31.654Z,58.75
2022-12-18T12:22:09.342Z,60.32
2022-12-18T12:24:56.637Z,62.42
2022-12-18T12:27:55.672Z,65.29
2022-12-18T12:31:07.362Z,63.62
2022-12-18T12:33:45.247Z,60.68
2022-12-18T12:36:38.287Z,60.09
2022-12-18T12:39:09.618Z,57.22
2022-12-18T12:41:57.196Z,55.81
2022-12-18T12:44:32.004Z,57.15
2022-12-18T12:47:04.501Z,57.39
2022-12-18T12:49:37.556Z,60.31
2022-12-18T12:52:14.043Z,65.27
2022-12-18T12:54:42.216Z,66.24
2022-12-18T12:57:39.062Z,64.71
2022-12-18T13:00:10.118Z,62.65
2022-12-18T13:02:49.049Z,60.18
2022-12-18T13:05:35.885Z,57.03
2022-12-18T13:08:07.298Z,57.22
2022-12-18T13:10:36.723Z,56.71
2022-12-18T13:13:17.160Z,59.29
2022-12-18T13:16:08.332Z,62.63
2022-12-18T13:18:36.448Z,65.14
2022-12-18T13:21:21.088Z,64.18
2022-12-18T13:23:50.001Z,62.67
2022-12-18T13:26:19.900Z,61.26
2022-12-18T13:28:55.680Z,60.25
2022-12-18T13:31:42.192Z,58.70
2022-12-18T13:34:26.081Z,54.31
2022-12-18T13:36:56.464Z,54.88
2022-12-18T13:39:35.931Z,54.53
2022-12-18T13:42:07.644Z,57.89
2022-12-18T13:44:43.090Z,58.96
2022-12-18T13:47:35.076Z,60.64
2022-12-18T13:50:11.023Z,66.04
2022-12-18T13:52:38.897Z,67.21
2022-12-18T13:55:15.290Z,62.68
2022-12-18T13:57:43.739Z,56.07
2022-12-18T14:00:29.668Z,54.94
2022-12-18T14:02:58.934Z,57.66
2022-12-18T14:05:33.376Z,59.21
2022-12-18T14:08:15.571Z,63.39
2022-12-18T14:10:49.510Z,64.40
2022-12-18T14:13:27.991Z,63.21
2022-12-18T14:15:55.873Z,57.83
2022-12-18T14:18:27.486Z,52.62
2022-12-18T14:21:00.902Z,52.33
2022-12-18T14:23:41.601Z,53.44
2022-12-18T14:26:30.432Z,55.13
2022-12-18T14:29:19.415Z,56.81
2022-12-18T14:31:47.847Z,55.05
2022-12-18T14:34:17.964Z,54.96
2022-12-18T14:36:56.367Z,55.97
2022-12-18T14:39:26.597Z,58.83
2022-12-18T14:41:55.246Z,64.88
2022-12-18T14:44:24.069Z,72.10
2022-12-18T14:46:52.191Z,65.40
2022-12-18T14:49:35.499Z,57.33
2022-12-18T14:52:27.913Z,51.36
2022-12-18T14:54:55.722Z,51.57
2022-12-18T14:57:26.406Z,55.04
2022-12-18T14:59:54.229Z,53.91
2022-12-18T15:02:27.949Z,54.02
2022-12-18T15:05:11.311Z,54.13
2022-12-18T15:07:53.154Z,55.17
2022-12-18T15:10:32.835Z,60.90
2022-12-18T15:13:01.642Z,70.69
2022-12-18T15:15:38.724Z,69.05
2022-12-18T15:18:18.058Z,60.68
2022-12-18T15:20:50.866Z,53.97
2022-12-18T15:23:31.397Z,52.30
2022-12-18T15:26:10.085Z,57.95
2022-12-18T15:28:56.193Z,55.99
2022-12-18T15:31:37.503Z,58.02
2022-12-18T15:34:08.823Z,61.13
2022-12-18T15:36:37.651Z,67.62
2022-12-18T15:39:06.677Z,67.88
2022-12-18T15:41:36.367Z,61.22
2022-12-18T15:44:18.403Z,56.56
2022-12-18T15:46:46.200Z,55.97
2022-12-18T15:49:13.998Z,56.75
2022-12-18T15:51:41.926Z,55.23
2022-12-18T15:54:14.109Z,65.09
2022-12-18T15:57:00.852Z,66.70
2022-12-18T15:59:28.728Z,62.49
2022-12-18T16:01:57.500Z,61.53
2022-12-18T16:04:26.358Z,57.21
2022-12-18T16:09:42.946Z,55.05
2022-12-18T16:12:23.771Z,55.38
2022-12-18T16:14:51.881Z,60.60
2022-12-18T16:17:19.736Z,63.82
2022-12-18T16:19:47.813Z,64.15
2022-12-18T16:22:22.130Z,62.03
2022-12-18T16:24:51.329Z,59.91
2022-12-18T16:27:19.412Z,57.69
2022-12-18T16:29:47.367Z,55.53
2022-12-18T16:32:17.489Z,57.86
2022-12-18T16:34:45.759Z,62.79
2022-12-18T16:37:14.850Z,65.53
2022-12-18T16:39:43.027Z,65.14
2022-12-18T16:42:20.378Z,62.62
2022-12-18T16:44:49.653Z,57.70
2022-12-18T16:47:18.193Z,55.90
2022-12-18T16:49:46.608Z,57.87
2022-12-18T16:52:14.756Z,58.89
2022-12-18T16:54:42.530Z,55.36
2022-12-18T16:57:13.245Z,58.06
2022-12-18T16:59:41.107Z,62.28
2022-12-18T17:02:15.851Z,67.89
2022-12-18T17:04:45.558Z,66.90
2022-12-18T17:07:13.683Z,64.76
2022-12-18T17:09:41.984Z,61.95
2022-12-18T17:12:10.055Z,60.71
2022-12-18T17:14:37.958Z,59.49
2022-12-18T17:17:22.688Z,57.77
2022-12-18T17:19:52.152Z,58.83
2022-12-18T17:22:22.000Z,62.31
2022-12-18T17:24:50.271Z,64.95
2022-12-18T17:27:18.143Z,63.64
2022-12-18T17:29:48.427Z,64.04
2022-12-18T17:32:17.994Z,61.28
2022-12-18T17:34:46.142Z,57.69
2022-12-18T17:37:14.310Z,56.15
2022-12-18T17:39:42.579Z,56.83
2022-12-18T17:42:14.929Z,59.51
2022-12-18T17:44:44.560Z,64.41
2022-12-18T17:47:13.655Z,65.66
2022-12-18T17:49:42.578Z,64.40
2022-12-18T17:52:10.565Z,60.71
2022-12-18T17:54:41.533Z,55.12
2022-12-18T17:57:09.623Z,52.85
2022-12-18T17:59:37.443Z,53.01
2022-12-18T18:02:05.704Z,53.69
2022-12-18T18:04:34.861Z,54.06
2022-12-18T18:07:03.265Z,53.59
2022-12-18T18:09:32.535Z,53.72
2022-12-18T18:12:18.948Z,53.42
2022-12-18T18:14:47.211Z,53.36
2022-12-18T18:17:15.688Z,55.69
2022-12-18T18:19:45.465Z,58.86
2022-12-18T18:22:18.179Z,57.28
2022-12-18T18:24:47.074Z,62.81
2022-12-18T18:27:15.285Z,70.21
2022-12-18T18:29:43.331Z,65.70
2022-12-18T18:32:11.336Z,59.67
2022-12-18T18:34:39.247Z,55.01
2022-12-18T18:37:07.317Z,52.05
2022-12-18T18:39:35.389Z,50.39
2022-12-18T18:42:03.358Z,48.18
2022-12-18T18:44:31.249Z,47.12
2022-12-18T18:46:59.596Z,46.40
2022-12-18T18:49:28.117Z,45.91
2022-12-18T18:51:57.280Z,44.64
2022-12-18T18:54:25.743Z,42.87
2022-12-18T18:57:19.348Z,41.95
2022-12-18T18:59:42.275Z,40.42
2022-12-18T19:02:14.361Z,39.75
2022-12-18T19:04:45.998Z,38.80
2022-12-18T19:07:29.374Z,37.94
2022-12-18T19:10:05.041Z,37.71
2022-12-18T19:12:53.521Z,37.75
2022-12-18T19:15:22.969Z,37.75
2022-12-18T19:17:51.094Z,37.70
2022-12-18T19:20:19.261Z,38.78
2022-12-18T19:22:52.221Z,39.60
2022-12-18T19:25:37.575Z,40.40
2022-12-18T19:28:15.849Z,40.61
2022-12-18T19:30:57.301Z,40.66
2022-12-18T19:33:42.250Z,40.94
2022-12-18T19:36:21.329Z,42.52
2022-12-18T19:38:49.896Z,41.46
2022-12-18T19:41:19.351Z,39.85
2022-12-18T19:43:47.731Z,39.56
2022-12-18T19:46:18.369Z,40.19
2022-12-18T19:48:46.991Z,39.61
2022-12-18T19:51:23.353Z,37.46
2022-12-18T19:53:56.628Z,37.93
2022-12-18T19:56:28.141Z,38.40
2022-12-18T19:58:56.019Z,37.27
2022-12-18T20:01:25.137Z,36.40
2022-12-18T20:03:55.509Z,37.26
2022-12-18T20:06:32.731Z,37.38
2022-12-18T20:09:06.265Z,36.50
2022-12-18T20:11:36.922Z,37.89
2022-12-18T20:14:13.783Z,39.15
2022-12-18T20:16:41.903Z,38.27
2022-12-18T20:19:11.428Z,38.35
2022-12-18T20:21:39.285Z,37.55
2022-12-18T20:24:08.901Z,36.50
2022-12-18T20:26:36.742Z,36.85
2022-12-18T20:29:04.648Z,37.24
2022-12-18T20:31:32.590Z,37.91
2022-12-18T20:34:03.552Z,37.26
2022-12-18T20:36:35.117Z,37.03
2022-12-18T20:39:06.595Z,37.17
2022-12-18T20:41:38.232Z,37.23
2022-12-18T20:44:21.793Z,37.30
2022-12-18T20:46:56.862Z,37.14
2022-12-18T20:49:26.331Z,38.14
2022-12-18T20:51:56.448Z,39.14
2022-12-18T20:54:26.320Z,37.77
2022-12-18T20:56:54.380Z,38.01
2022-12-18T20:59:23.422Z,38.43
2022-12-18T21:01:52.549Z,39.26
2022-12-18T21:04:20.739Z,39.44
2022-12-18T21:06:53.389Z,39.94
2022-12-18T21:09:25.884Z,39.36
2022-12-18T21:12:14.324Z,38.53
2022-12-18T21:14:43.069Z,38.16
2022-12-18T21:17:11.544Z,37.87
2022-12-18T21:19:40.189Z,38.13
2022-12-18T21:22:10.107Z,38.14
2022-12-18T21:24:38.174Z,41.60
2022-12-18T21:27:06.465Z,40.76
2022-12-18T21:29:35.083Z,36.74
2022-12-18T21:32:03.718Z,35.20
2022-12-18T21:34:32.605Z,35.49
2022-12-18T21:37:01.088Z,36.01
2022-12-18T21:39:30.077Z,36.44
2022-12-18T21:42:17.002Z,36.92
2022-12-18T21:44:45.260Z,36.67
2022-12-18T21:47:22.387Z,37.12
2022-12-18T21:49:54.100Z,37.74
2022-12-18T21:52:32.046Z,37.74
2022-12-18T21:55:08.605Z,38.27
2022-12-18T21:57:39.001Z,39.75
2022-12-18T22:00:10.582Z,39.55
2022-12-18T22:02:40.664Z,38.27
2022-12-18T22:05:09.351Z,38.12
2022-12-18T22:07:37.322Z,38.78
2022-12-18T22:10:06.075Z,39.02
2022-12-18T22:12:44.477Z,38.35
2022-12-18T22:15:21.101Z,38.58
2022-12-18T22:17:51.323Z,38.89
2022-12-18T22:20:26.749Z,38.85
2022-12-18T22:22:54.818Z,38.90
2022-12-18T22:25:22.692Z,38.55
2022-12-18T22:28:09.440Z,39.89
2022-12-18T22:30:37.261Z,40.23
2022-12-18T22:33:05.057Z,40.24
2022-12-18T22:35:32.989Z,38.45
2022-12-18T22:38:00.956Z,38.10
2022-12-18T22:40:29.159Z,38.86
2022-12-18T22:42:57.075Z,39.18
2022-12-18T22:45:26.499Z,38.24
2022-12-18T22:47:54.671Z,38.10
2022-12-18T22:50:22.642Z,38.54
2022-12-18T22:52:50.436Z,38.71
2022-12-18T22:55:18.574Z,37.95
2022-12-18T22:57:48.852Z,37.36
2022-12-18T23:00:23.969Z,37.77
2022-12-18T23:02:59.714Z,38.66
2022-12-18T23:05:30.670Z,38.43
2022-12-18T23:07:59.179Z,38.11
2022-12-18T23:10:27.591Z,38.01
2022-12-18T23:12:55.587Z,38.18
2022-12-18T23:15:28.542Z,38.43
2022-12-18T23:17:59.776Z,38.02
2022-12-18T23:20:27.776Z,37.78
2022-12-18T23:22:55.647Z,38.12
2022-12-18T23:25:24.804Z,38.55
2022-12-18T23:27:52.804Z,38.96
2022-12-18T23:30:20.742Z,39.07
2022-12-18T23:32:48.612Z,39.19
2022-12-18T23:35:17.494Z,38.87
2022-12-18T23:38:02.125Z,38.74
2022-12-18T23:40:30.118Z,38.26
2022-12-18T23:42:59.531Z,38.39
2022-12-18T23:45:27.543Z,38.46
2022-12-18T23:47:55.387Z,38.78
2022-12-18T23:50:29.287Z,38.66
2022-12-18T23:53:04.788Z,39.10
2022-12-18T23:55:39.471Z,39.21
2022-12-18T23:58:18.322Z,38.63
